Stations météo

Publicité
Mont Aigoual, France (7560): Température de l'air & dewpoint: 19.05.2017 08:00:00 - 25.05.2017 08:00:00 (CEST)Mont Aigoual, France (7560): Vitesse du vent & gusts: 19.05.2017 08:00:00 - 25.05.2017 08:00:00 (CEST)Mont Aigoual, France (7560): Direction du vent: 19.05.2017 08:00:00 - 25.05.2017 08:00:00 (CEST)Mont Aigoual, France (7560): visibility: 19.05.2017 08:00:00 - 25.05.2017 08:00:00 (CEST)Mont Aigoual, France (7560): Quantités de précipitations: 19.05.2017 08:00:00 - 25.05.2017 08:00:00 (CEST)
Date & Time tt [°C] td [°C] ff [km/h] ff [knt] fx [km/h] fx [knt] dd vv [km] rr [mm]
25.05.2017 08:00:00 16,4 -2,7 16 9 24 13 N 20 0,0
25.05.2017 07:00:00 15,3 -2,2 18 10 28 15 N 20 0,0
25.05.2017 06:00:00 14,1 -0,4 16 9 24 13 NW 20 0,0
25.05.2017 05:00:00 13,9 -2,1 17 9 30 16 N 20 0,0
25.05.2017 04:00:00 14,3 -1,0 27 15 37 20 N 20 0,0
25.05.2017 03:00:00 13,8 0,4 30 16 41 22 N 20 0,0
25.05.2017 02:00:00 13,9 1,8 30 16 39 21 N 20 0,0
25.05.2017 01:00:00 13,6 2,8 30 16 36 20 N 20 0,0
25.05.2017 00:00:00 12,8 5,0 18 10 29 16 N 20 0,0
24.05.2017 23:00:00 12,9 5,1 23 12 30 16 N 20 0,0
24.05.2017 22:00:00 13,9 6,0 24 13 29 16 N 20 0,0
24.05.2017 21:00:00 15,4 5,3 22 12 27 15 N 20 0,0
24.05.2017 20:00:00 16,9 5,8 23 12 29 16 N 20 0,0
24.05.2017 19:00:00 18,2 6,4 15 8 26 14 N 20 0,0
24.05.2017 18:00:00 19,1 6,9 13 7 23 13 N 20 0,0
24.05.2017 17:00:00 19,7 6,4 8 4 23 12 NNE 18 0,0
24.05.2017 16:00:00 19,3 7,7 4 2 26 14 E 19 0,0
24.05.2017 15:00:00 18,7 7,5 6 3 23 12 N 18 0,0
24.05.2017 14:00:00 18,0 6,2 9 5 26 14 NNW 20 0,0
24.05.2017 13:00:00 17,0 7,6 7 4 27 14 N 19 0,0
24.05.2017 12:00:00 16,5 6,0 14 7 27 14 N 19 0,0
24.05.2017 11:00:00 15,7 5,9 12 6 21 11 NNE 20 0,0
24.05.2017 10:00:00 15,6 5,2 7 4 16 8 NNE 20 0,0
24.05.2017 09:00:00 14,9 3,7 9 5 18 10 N 20 0,0
24.05.2017 08:00:00 14,2 1,8 10 5 28 15 NNE 20 0,0
24.05.2017 07:00:00 12,9 1,5 26 14 35 19 N 20 0,0
24.05.2017 06:00:00 12,7 -2,0 34 18 40 22 N 20 0,0
24.05.2017 05:00:00 12,3 -0,6 36 19 48 26 N 20 0,0
24.05.2017 04:00:00 12,1 1,7 39 21 51 28 N 20 0,0
24.05.2017 03:00:00 11,1 5,2 41 22 55 30 N 20 0,0
24.05.2017 02:00:00 11,1 6,6 38 20 55 30 N 20 0,0
24.05.2017 01:00:00 10,8 10,0 41 22 58 32 N 11 0,0
24.05.2017 00:00:00 11,4 9,3 47 26 69 38 N 20 0,0
23.05.2017 23:00:00 12,4 7,3 51 28 73 40 N 20 0,0
23.05.2017 22:00:00 12,5 8,0 44 24 55 30 N 20 0,0
23.05.2017 21:00:00 13,0 11,2 31 17 45 25 NNW 14 0,0
23.05.2017 20:00:00 14,0 11,3 30 16 44 24 NNW 20 0,0
23.05.2017 19:00:00 15,2 11,2 29 15 41 22 NW 20 0,0
23.05.2017 18:00:00 16,7 8,9 23 13 42 23 N 20 0,0
23.05.2017 17:00:00 16,8 8,0 30 16 43 23 NNW 19 0,0
23.05.2017 16:00:00 16,5 9,4 29 16 47 25 NNW 20 0,0
23.05.2017 15:00:00 16,3 9,7 26 14 41 22 NNW 20 0,0
23.05.2017 14:00:00 15,8 8,8 22 12 42 23 N 16 0,0
23.05.2017 13:00:00 14,8 11,0 24 13 42 23 NNW 20 0,0
23.05.2017 12:00:00 13,9 9,5 21 11 37 20 NNW 20 0,0
23.05.2017 11:00:00 14,1 8,7 23 12 44 24 N 18 0,0
23.05.2017 10:00:00 12,1 8,8 28 15 36 20 NNW 20 0,0
23.05.2017 09:00:00 11,0 9,6 21 12 34 19 NW 1,1 -
23.05.2017 08:00:00 10,7 8,8 26 14 36 19 NNW 19 0,0
23.05.2017 07:00:00 10,7 8,6 32 18 45 24 NNW 20 0,0
23.05.2017 06:00:00 9,6 9,0 37 20 48 26 NNW 19 0,0
23.05.2017 05:00:00 10,0 9,7 39 21 53 29 NNW 1,9 0,0
23.05.2017 04:00:00 9,8 9,5 39 21 51 28 NW 0,1 0,0
23.05.2017 03:00:00 10,0 9,7 40 22 52 28 NW - 0,0
23.05.2017 02:00:00 9,8 9,2 40 22 54 29 NW 3,5 0,0
23.05.2017 01:00:00 10,8 9,7 44 24 52 28 WNW 16 0,0
23.05.2017 00:00:00 11,0 6,9 40 21 51 27 NW 20 0,0
22.05.2017 23:00:00 11,9 6,6 28 15 36 20 NW 20 0,0
22.05.2017 22:00:00 12,4 4,6 25 13 34 18 N 20 0,0
22.05.2017 21:00:00 12,0 6,5 24 13 30 16 NW 20 0,0
22.05.2017 20:00:00 13,2 6,3 5 3 16 8 WNW 20 0,0
22.05.2017 19:00:00 13,9 6,0 3 2 10 5 ESE 20 0,0
22.05.2017 18:00:00 12,6 5,3 9 5 27 14 S 20 0,0
22.05.2017 17:00:00 12,7 4,6 16 9 29 15 S 20 0,0
22.05.2017 16:00:00 12,7 4,4 16 9 32 17 S 20 0,0
22.05.2017 15:00:00 12,9 2,7 18 10 29 16 S 20 0,0
22.05.2017 14:00:00 11,9 2,3 15 8 33 18 S 20 0,0
22.05.2017 13:00:00 10,1 0,1 22 12 40 21 S 20 0,0
22.05.2017 12:00:00 9,7 -6,2 31 17 55 30 S 20 0,0
22.05.2017 11:00:00 9,1 -8,5 37 20 - - S 20 0,0
22.05.2017 10:00:00 8,8 -5,5 41 22 57 31 S 20 0,0
22.05.2017 09:00:00 8,7 -4,5 43 23 63 34 S 20 0,0
22.05.2017 08:00:00 8,5 -5,0 45 24 56 31 S 20 0,0
22.05.2017 07:00:00 8,4 -7,0 47 25 65 35 S 20 0,0
22.05.2017 06:00:00 8,7 -5,6 49 26 65 35 S 20 0,0
22.05.2017 05:00:00 8,8 -6,2 49 26 68 37 S 20 0,0
22.05.2017 04:00:00 8,8 -5,5 50 27 71 39 S 20 0,0
22.05.2017 03:00:00 8,7 -5,2 51 28 67 36 S 20 0,0
22.05.2017 02:00:00 8,9 -5,8 50 27 63 34 S 20 0,0
22.05.2017 01:00:00 9,0 -6,1 48 26 60 33 SSE 20 0,0
22.05.2017 00:00:00 9,3 -4,0 45 25 59 32 SSE 20 0,0
21.05.2017 23:00:00 8,8 -2,8 43 23 48 26 SSE 20 0,0
21.05.2017 22:00:00 9,0 3,2 32 17 39 21 SSE 20 0,0
21.05.2017 21:00:00 10,0 2,6 32 18 42 23 SSE 20 0,0
21.05.2017 20:00:00 11,2 2,5 26 14 39 21 S 20 0,0
21.05.2017 19:00:00 12,8 2,9 19 10 35 19 S 20 0,0
21.05.2017 18:00:00 13,3 2,5 19 10 39 21 S 20 0,0
21.05.2017 17:00:00 - - - - - - - - -
21.05.2017 16:00:00 - - - - - - - - -
21.05.2017 15:00:00 - - - - - - - - -
21.05.2017 14:00:00 - - - - - - - - -
21.05.2017 13:00:00 - - - - - - - - -
21.05.2017 12:00:00 - - - - - - - - -
21.05.2017 11:00:00 - - - - - - - - -
21.05.2017 10:00:00 - - - - - - - - -
21.05.2017 09:00:00 - - - - - - - - -
21.05.2017 08:00:00 - - - - - - - - -
21.05.2017 07:00:00 - - - - - - - - -
21.05.2017 06:00:00 - - - - - - - - -
21.05.2017 05:00:00 - - - - - - - - -
21.05.2017 04:00:00 - - - - - - - - -
21.05.2017 03:00:00 - - - - - - - - -
21.05.2017 02:00:00 - - - - - - - - -
21.05.2017 01:00:00 - - - - - - - - -
21.05.2017 00:00:00 - - - - - - - - -
20.05.2017 23:00:00 - - - - - - - - -
20.05.2017 22:00:00 - - - - - - - - -
20.05.2017 21:00:00 - - - - - - - - -
20.05.2017 20:00:00 - - - - - - - - -
20.05.2017 19:00:00 - - - - - - - - -
20.05.2017 18:00:00 - - - - - - - - -
20.05.2017 17:00:00 - - - - - - - - -
20.05.2017 16:00:00 - - - - - - - - -
20.05.2017 15:00:00 - - - - - - - - -
20.05.2017 14:00:00 - - - - - - - - -
20.05.2017 13:00:00 - - - - - - - - -
20.05.2017 12:00:00 - - - - - - - - -
20.05.2017 11:00:00 - - - - - - - - -
20.05.2017 10:00:00 - - - - - - - - -
20.05.2017 09:00:00 - - - - - - - - -
20.05.2017 08:00:00 - - - - - - - - -
20.05.2017 07:00:00 - - - - - - - - -
20.05.2017 06:00:00 - - - - - - - - -
20.05.2017 05:00:00 - - - - - - - - -
20.05.2017 04:00:00 - - - - - - - - -
20.05.2017 03:00:00 - - - - - - - - -
20.05.2017 02:00:00 - - - - - - - - -
20.05.2017 01:00:00 - - - - - - - - -
20.05.2017 00:00:00 - - - - - - - - -
19.05.2017 23:00:00 - - - - - - - - -
19.05.2017 22:00:00 - - - - - - - - -
19.05.2017 21:00:00 - - - - - - - - -
19.05.2017 20:00:00 - - - - - - - - -
19.05.2017 19:00:00 - - - - - - - - -
19.05.2017 18:00:00 - - - - - - - - -
19.05.2017 17:00:00 - - - - - - - - -
19.05.2017 16:00:00 - - - - - - - - -
19.05.2017 15:00:00 - - - - - - - - -
19.05.2017 14:00:00 - - - - - - - - -
19.05.2017 13:00:00 - - - - - - - - -
19.05.2017 12:00:00 - - - - - - - - -
19.05.2017 11:00:00 - - - - - - - - -
19.05.2017 10:00:00 - - - - - - - - -
19.05.2017 09:00:00 - - - - - - - - -
19.05.2017 08:00:00 - - - - - - - - -

tt = Température de l'air
td = dewpoint
ff = Vitesse du vent
fx = gusts
dd = Direction du vent
vv = visibility
rr = Quantités de précipitations

stations d'obs. à proximité